createdAt,value
2022-08-03T00:00:48.973Z,21.09
2022-08-03T00:01:29.212Z,21.09
2022-08-03T00:02:29.023Z,21.09
2022-08-03T00:03:29.364Z,21.06
2022-08-03T00:04:33.950Z,21.03
2022-08-03T00:05:29.863Z,20.98
2022-08-03T00:06:31.632Z,20.94
2022-08-03T00:07:28.873Z,20.94
2022-08-03T00:08:29.203Z,20.91
2022-08-03T00:09:28.974Z,20.89
2022-08-03T00:10:50.275Z,20.88
2022-08-03T00:11:28.993Z,20.88
2022-08-03T00:12:28.783Z,20.85
2022-08-03T00:13:29.054Z,20.84
2022-08-03T00:14:28.835Z,20.82
2022-08-03T00:15:29.125Z,20.80
2022-08-03T00:16:28.860Z,20.80
2022-08-03T00:17:29.157Z,20.77
2022-08-03T00:18:28.937Z,20.74
2022-08-03T00:19:28.706Z,20.72
2022-08-03T00:20:48.978Z,20.73
2022-08-03T00:21:28.819Z,20.74
2022-08-03T00:22:29.089Z,20.73
2022-08-03T00:23:50.934Z,20.73
2022-08-03T00:24:29.649Z,20.72
2022-08-03T00:25:28.930Z,20.70
2022-08-03T00:26:28.731Z,20.69
2022-08-03T00:27:29.017Z,20.67
2022-08-03T00:28:28.821Z,20.67
2022-08-03T00:29:28.580Z,20.66
2022-08-03T00:30:48.909Z,20.62
2022-08-03T00:31:51.667Z,20.62
2022-08-03T00:32:29.908Z,20.61
2022-08-03T00:33:28.672Z,20.57
2022-08-03T00:34:36.383Z,20.57
2022-08-03T00:35:50.120Z,20.55
2022-08-03T00:36:29.503Z,20.52
2022-08-03T00:37:41.181Z,20.52
2022-08-03T00:38:29.541Z,20.52
2022-08-03T00:39:28.814Z,20.52
2022-08-03T00:40:48.585Z,20.51
2022-08-03T00:41:28.863Z,20.52
2022-08-03T00:42:28.614Z,20.51
2022-08-03T00:43:28.395Z,20.50
2022-08-03T00:44:28.685Z,20.50
2022-08-03T00:45:28.486Z,20.48
2022-08-03T00:46:28.767Z,20.43
2022-08-03T00:47:28.556Z,20.43
2022-08-03T00:48:33.070Z,20.43
2022-08-03T00:49:29.625Z,20.42
2022-08-03T00:50:48.386Z,20.41
2022-08-03T00:51:28.635Z,20.41
2022-08-03T00:52:28.418Z,20.38
2022-08-03T00:53:28.697Z,20.35
2022-08-03T00:54:28.486Z,20.33
2022-08-03T00:55:28.784Z,20.31
2022-08-03T00:56:28.597Z,20.28
2022-08-03T00:57:28.349Z,20.28
2022-08-03T00:58:28.664Z,20.24
2022-08-03T00:59:28.431Z,20.26
2022-08-03T01:00:48.849Z,20.23
2022-08-03T01:01:32.346Z,20.24
2022-08-03T01:02:28.252Z,20.23
2022-08-03T01:03:28.551Z,20.21
2022-08-03T01:04:28.297Z,20.23
2022-08-03T01:05:28.600Z,20.18
2022-08-03T01:06:28.381Z,20.20
2022-08-03T01:07:28.151Z,20.18
2022-08-03T01:08:28.440Z,20.18
2022-08-03T01:09:28.167Z,20.16
2022-08-03T01:10:48.475Z,20.14
2022-08-03T01:11:28.224Z,20.16
2022-08-03T01:12:28.534Z,20.14
2022-08-03T01:14:01.391Z,20.13
2022-08-03T01:14:28.604Z,20.11
2022-08-03T01:15:28.345Z,20.11
2022-08-03T01:16:37.081Z,20.11
2022-08-03T01:17:29.427Z,20.13
2022-08-03T01:18:28.225Z,20.10
2022-08-03T01:19:28.508Z,20.10
2022-08-03T01:20:48.276Z,20.08
2022-08-03T01:21:28.034Z,20.10
2022-08-03T01:22:28.346Z,20.08
2022-08-03T01:23:28.814Z,20.06
2022-08-03T01:24:28.387Z,20.06
2022-08-03T01:25:28.168Z,20.05
2022-08-03T01:26:27.911Z,20.03
2022-08-03T01:27:28.204Z,20.01
2022-08-03T01:28:27.984Z,20.01
2022-08-03T01:29:28.267Z,19.99
2022-08-03T01:30:48.091Z,19.96
2022-08-03T01:31:28.321Z,19.98
2022-08-03T01:32:59.042Z,19.95
2022-08-03T01:33:28.900Z,19.95
2022-08-03T01:34:28.181Z,19.94
2022-08-03T01:35:27.964Z,19.91
2022-08-03T01:36:28.252Z,19.88
2022-08-03T01:37:28.031Z,19.87
2022-08-03T01:38:28.305Z,19.86
2022-08-03T01:39:28.093Z,19.86
2022-08-03T01:40:48.393Z,19.83
2022-08-03T01:41:28.133Z,19.83
2022-08-03T01:42:27.906Z,19.81
2022-08-03T01:44:27.983Z,19.81
2022-08-03T01:44:30.918Z,19.81
2022-08-03T01:45:28.045Z,19.80
2022-08-03T01:46:28.835Z,19.78
2022-08-03T01:47:28.099Z,19.76
2022-08-03T01:48:27.853Z,19.73
2022-08-03T01:49:28.158Z,19.71
2022-08-03T01:50:47.917Z,19.68
2022-08-03T01:52:03.498Z,19.69
2022-08-03T01:52:28.963Z,19.68
2022-08-03T01:53:27.721Z,19.66
2022-08-03T01:54:27.988Z,19.66
2022-08-03T01:55:27.777Z,19.66
2022-08-03T01:56:28.057Z,19.65
2022-08-03T01:57:27.789Z,19.63
2022-08-03T01:58:28.096Z,19.63
2022-08-03T01:59:27.889Z,19.59
2022-08-03T02:00:47.696Z,19.58
2022-08-03T02:01:27.953Z,19.58
2022-08-03T02:02:33.908Z,19.55
2022-08-03T02:03:28.866Z,19.55
2022-08-03T02:04:27.640Z,19.55
2022-08-03T02:05:27.934Z,19.54
2022-08-03T02:07:01.891Z,19.51
2022-08-03T02:07:28.999Z,19.54
2022-08-03T02:08:27.801Z,19.54
2022-08-03T02:09:27.571Z,19.51
2022-08-03T02:10:47.874Z,19.54
2022-08-03T02:11:27.623Z,19.54
2022-08-03T02:12:27.889Z,19.51
2022-08-03T02:13:27.677Z,19.51
2022-08-03T02:14:27.954Z,19.54
2022-08-03T02:15:27.724Z,19.54
2022-08-03T02:16:27.495Z,19.54
2022-08-03T02:17:39.797Z,19.51
2022-08-03T02:18:28.566Z,19.51
2022-08-03T02:19:29.480Z,19.51
2022-08-03T02:20:47.614Z,19.51
2022-08-03T02:21:56.335Z,19.50
2022-08-03T02:22:29.594Z,19.50
2022-08-03T02:23:27.413Z,19.47
2022-08-03T02:24:27.689Z,19.47
2022-08-03T02:25:27.469Z,19.46
2022-08-03T02:26:27.735Z,19.46
2022-08-03T02:27:27.537Z,19.43
2022-08-03T02:28:27.817Z,19.44
2022-08-03T02:29:39.492Z,19.41
2022-08-03T02:30:51.799Z,19.40
2022-08-03T02:31:28.658Z,19.41
2022-08-03T02:32:27.448Z,19.40
2022-08-03T02:33:27.730Z,19.40
2022-08-03T02:34:27.512Z,19.37
2022-08-03T02:35:26.740Z,19.36
2022-08-03T02:36:27.549Z,19.33
2022-08-03T02:37:27.340Z,19.32
2022-08-03T02:38:27.620Z,19.31
2022-08-03T02:39:27.390Z,19.31
2022-08-03T02:40:47.673Z,19.31
2022-08-03T02:41:27.473Z,19.29
2022-08-03T02:42:27.215Z,19.28
2022-08-03T02:43:27.524Z,19.25
2022-08-03T02:44:27.303Z,19.26
2022-08-03T02:45:27.575Z,19.25
2022-08-03T02:46:27.313Z,19.23
2022-08-03T02:47:27.589Z,19.25
2022-08-03T02:48:27.374Z,19.22
2022-08-03T02:49:41.373Z,19.21
2022-08-03T02:50:48.423Z,19.22
2022-08-03T02:51:27.174Z,19.22
2022-08-03T02:52:27.493Z,19.21
2022-08-03T02:53:27.264Z,19.21
2022-08-03T02:54:27.026Z,19.21
2022-08-03T02:55:27.295Z,19.21
2022-08-03T02:56:27.098Z,19.19
2022-08-03T02:57:27.387Z,19.19
2022-08-03T02:58:27.156Z,19.18
2022-08-03T02:59:27.419Z,19.19
2022-08-03T03:00:47.321Z,19.16
2022-08-03T03:01:27.573Z,19.16
2022-08-03T03:02:27.235Z,19.13
2022-08-03T03:03:28.230Z,19.13
2022-08-03T03:04:29.333Z,19.11
2022-08-03T03:05:53.244Z,19.11
2022-08-03T03:06:29.302Z,19.08
2022-08-03T03:07:27.165Z,19.08
2022-08-03T03:08:28.194Z,19.07
2022-08-03T03:09:27.239Z,19.07
2022-08-03T03:10:48.011Z,19.06
2022-08-03T03:11:27.311Z,19.07
2022-08-03T03:12:27.060Z,19.06
2022-08-03T03:13:26.846Z,19.06
2022-08-03T03:14:33.782Z,19.04
2022-08-03T03:15:27.903Z,19.02
2022-08-03T03:16:27.199Z,19.00
2022-08-03T03:17:26.973Z,18.99
2022-08-03T03:18:27.215Z,18.99
2022-08-03T03:19:27.013Z,18.98
2022-08-03T03:20:47.303Z,18.94
2022-08-03T03:21:27.073Z,18.92
2022-08-03T03:22:26.813Z,18.92
2022-08-03T03:23:27.106Z,18.90
2022-08-03T03:24:26.894Z,18.90
2022-08-03T03:25:27.177Z,18.90
2022-08-03T03:26:26.913Z,18.91
2022-08-03T03:27:27.252Z,18.90
2022-08-03T03:28:26.992Z,18.88
2022-08-03T03:29:26.786Z,18.88
2022-08-03T03:30:52.876Z,18.85
2022-08-03T03:31:27.846Z,18.90
2022-08-03T03:32:27.118Z,18.85
2022-08-03T03:33:28.497Z,18.85
2022-08-03T03:34:26.676Z,18.85
2022-08-03T03:35:26.961Z,18.85
2022-08-03T03:36:26.760Z,18.85
2022-08-03T03:37:27.043Z,18.84
2022-08-03T03:38:26.835Z,18.82
2022-08-03T03:39:27.100Z,18.81
2022-08-03T03:40:46.890Z,18.81
2022-08-03T03:41:26.639Z,18.80
2022-08-03T03:42:26.920Z,18.78
2022-08-03T03:43:26.657Z,18.76
2022-08-03T03:44:26.931Z,18.78
2022-08-03T03:45:26.732Z,18.76
2022-08-03T03:46:27.022Z,18.75
2022-08-03T03:47:32.834Z,18.72
2022-08-03T03:48:27.602Z,18.70
2022-08-03T03:49:27.004Z,18.70
2022-08-03T03:50:46.658Z,18.72
2022-08-03T03:51:26.911Z,18.72
2022-08-03T03:52:26.732Z,18.70
2022-08-03T03:53:26.504Z,18.72
2022-08-03T03:54:29.243Z,18.72
2022-08-03T03:55:26.573Z,18.72
2022-08-03T03:56:26.849Z,18.72
2022-08-03T03:57:26.594Z,18.70
2022-08-03T03:58:26.829Z,18.69
2022-08-03T03:59:26.630Z,18.69
2022-08-03T04:00:46.918Z,18.69
2022-08-03T04:01:26.634Z,18.69
2022-08-03T04:02:26.866Z,18.67
2022-08-03T04:03:26.673Z,18.67
2022-08-03T04:04:26.428Z,18.66
2022-08-03T04:05:26.717Z,18.65
2022-08-03T04:06:26.524Z,18.66
2022-08-03T04:07:26.803Z,18.66
2022-08-03T04:08:26.577Z,18.66
2022-08-03T04:09:26.323Z,18.65
2022-08-03T04:10:46.607Z,18.65
2022-08-03T04:11:29.037Z,18.63
2022-08-03T04:12:26.639Z,18.62
2022-08-03T04:13:26.439Z,18.63
2022-08-03T04:14:26.702Z,18.63
2022-08-03T04:15:26.479Z,18.62
2022-08-03T04:16:26.252Z,18.60
2022-08-03T04:17:26.575Z,18.60
2022-08-03T04:18:26.351Z,18.58
2022-08-03T04:19:26.605Z,18.58
2022-08-03T04:20:46.381Z,18.60
2022-08-03T04:21:26.612Z,18.58
2022-08-03T04:22:26.382Z,18.57
2022-08-03T04:23:26.182Z,18.57
2022-08-03T04:24:26.661Z,18.58
2022-08-03T04:25:26.234Z,18.58
2022-08-03T04:26:26.525Z,18.58
2022-08-03T04:27:26.326Z,18.60
2022-08-03T04:28:30.386Z,18.58
2022-08-03T04:29:27.414Z,18.62
2022-08-03T04:30:46.199Z,18.62
2022-08-03T04:31:26.454Z,18.60
2022-08-03T04:32:26.735Z,18.62
2022-08-03T04:33:29.360Z,18.62
2022-08-03T04:34:26.375Z,18.63
2022-08-03T04:35:26.175Z,18.63
2022-08-03T04:36:27.499Z,18.63
2022-08-03T04:37:28.289Z,18.63
2022-08-03T04:38:26.150Z,18.63
2022-08-03T04:39:26.379Z,18.63
2022-08-03T04:40:46.218Z,18.62
2022-08-03T04:41:26.447Z,18.62
2022-08-03T04:42:26.207Z,18.63
2022-08-03T04:43:25.998Z,18.65
2022-08-03T04:44:28.336Z,18.65
2022-08-03T04:45:26.174Z,18.63
2022-08-03T04:46:26.353Z,18.63
2022-08-03T04:47:26.150Z,18.63
2022-08-03T04:48:25.954Z,18.63
2022-08-03T04:49:26.403Z,18.65
2022-08-03T04:50:46.066Z,18.65
2022-08-03T04:51:26.349Z,18.63
2022-08-03T04:52:26.126Z,18.65
2022-08-03T04:53:25.902Z,18.65
2022-08-03T04:54:26.171Z,18.65
2022-08-03T04:55:25.955Z,18.67
2022-08-03T04:56:26.260Z,18.69
2022-08-03T04:57:26.021Z,18.72
2022-08-03T04:58:25.830Z,18.72
2022-08-03T04:59:26.115Z,18.72
2022-08-03T05:00:45.920Z,18.75
2022-08-03T05:01:26.358Z,18.73
2022-08-03T05:02:25.992Z,18.75
2022-08-03T05:03:25.776Z,18.75
2022-08-03T05:04:26.025Z,18.76
2022-08-03T05:05:25.796Z,18.78
2022-08-03T05:06:27.075Z,18.81
2022-08-03T05:07:25.868Z,18.81
2022-08-03T05:08:28.231Z,18.82
2022-08-03T05:09:49.661Z,18.84
2022-08-03T05:10:47.187Z,18.85
2022-08-03T05:11:25.967Z,18.87
2022-08-03T05:12:28.332Z,18.87
2022-08-03T05:13:26.985Z,18.87
2022-08-03T05:14:28.301Z,18.88
2022-08-03T05:15:26.029Z,18.90
2022-08-03T05:16:25.819Z,18.91
2022-08-03T05:17:25.601Z,18.92
2022-08-03T05:18:25.860Z,18.95
2022-08-03T05:19:25.621Z,18.98
2022-08-03T05:20:45.949Z,19.00
2022-08-03T05:21:25.700Z,18.99
2022-08-03T05:22:26.982Z,19.00
2022-08-03T05:23:25.720Z,19.04
2022-08-03T05:24:26.012Z,19.07
2022-08-03T05:25:27.553Z,19.10
2022-08-03T05:26:25.592Z,19.11
2022-08-03T05:27:25.862Z,19.13
2022-08-03T05:28:25.646Z,19.14
2022-08-03T05:29:25.924Z,19.18
2022-08-03T05:30:45.733Z,19.22
2022-08-03T05:31:25.515Z,19.25
2022-08-03T05:32:25.793Z,19.28
2022-08-03T05:33:25.546Z,19.29
2022-08-03T05:34:25.785Z,19.33
2022-08-03T05:35:56.156Z,19.36
2022-08-03T05:36:26.854Z,19.40
2022-08-03T05:37:25.660Z,19.46
2022-08-03T05:38:28.637Z,19.48
2022-08-03T05:39:26.637Z,19.54
2022-08-03T05:40:56.638Z,19.58
2022-08-03T05:41:36.912Z,19.59
2022-08-03T05:42:26.357Z,19.65
2022-08-03T05:43:24.782Z,19.71
2022-08-03T05:44:24.764Z,19.74
2022-08-03T05:45:28.261Z,19.78
2022-08-03T05:46:25.505Z,19.81
2022-08-03T05:47:25.255Z,19.88
2022-08-03T05:48:26.486Z,19.94
2022-08-03T05:49:25.311Z,19.98
2022-08-03T05:50:45.556Z,20.02
2022-08-03T05:51:25.275Z,20.05
2022-08-03T05:52:25.595Z,20.13
2022-08-03T05:53:25.270Z,20.20
2022-08-03T05:54:25.509Z,20.26
2022-08-03T05:55:25.670Z,20.31
2022-08-03T05:56:25.397Z,20.38
2022-08-03T05:57:25.151Z,20.43
2022-08-03T05:58:25.408Z,20.52
2022-08-03T05:59:38.152Z,20.58
2022-08-03T06:00:46.401Z,20.66
2022-08-03T06:01:25.201Z,20.67
2022-08-03T06:02:25.378Z,20.73
2022-08-03T06:03:25.131Z,20.76
2022-08-03T06:04:25.397Z,20.82
2022-08-03T06:05:25.152Z,20.88
2022-08-03T06:06:28.245Z,20.94
2022-08-03T06:07:26.129Z,20.99
2022-08-03T06:08:25.380Z,21.07
2022-08-03T06:09:25.148Z,21.14
2022-08-03T06:10:47.523Z,21.25
2022-08-03T06:11:25.336Z,21.31
2022-08-03T06:12:25.111Z,21.40
2022-08-03T06:13:25.348Z,21.50
2022-08-03T06:14:25.091Z,21.58
2022-08-03T06:15:25.354Z,21.65
2022-08-03T06:16:25.111Z,21.75
2022-08-03T06:17:25.340Z,21.84
2022-08-03T06:18:25.096Z,21.91
2022-08-03T06:19:25.334Z,22.02
2022-08-03T06:20:49.242Z,22.14
2022-08-03T06:21:25.346Z,22.20
2022-08-03T06:22:25.118Z,22.31
2022-08-03T06:23:53.116Z,22.40
2022-08-03T06:24:26.768Z,22.54
2022-08-03T06:25:25.327Z,22.65
2022-08-03T06:26:25.086Z,22.77
2022-08-03T06:27:36.416Z,22.88
2022-08-03T06:29:28.283Z,23.09
2022-08-03T06:30:47.070Z,23.22
2022-08-03T06:31:24.859Z,23.28
2022-08-03T06:32:25.118Z,23.39
2022-08-03T06:33:24.848Z,23.54
2022-08-03T06:34:33.975Z,23.65
2022-08-03T06:35:26.012Z,23.73
2022-08-03T06:36:24.784Z,23.84
2022-08-03T06:37:25.091Z,23.90
2022-08-03T06:38:24.823Z,24.02
2022-08-03T06:39:25.054Z,24.10
2022-08-03T06:40:44.813Z,24.25
2022-08-03T06:41:25.039Z,24.32
2022-08-03T06:42:24.792Z,24.42
2022-08-03T06:43:25.031Z,24.50
2022-08-03T06:44:24.783Z,24.61
2022-08-03T06:45:25.051Z,24.68
2022-08-03T06:46:24.798Z,24.83
2022-08-03T06:47:30.334Z,24.93
2022-08-03T06:48:25.087Z,25.03
2022-08-03T06:49:24.893Z,25.17
2022-08-03T06:50:45.091Z,25.25
2022-08-03T06:52:37.097Z,25.25
2022-08-03T06:52:37.526Z,25.28
2022-08-03T06:53:25.857Z,25.38
2022-08-03T06:54:24.595Z,25.47
2022-08-03T06:55:24.846Z,25.57
2022-08-03T06:56:24.586Z,25.65
2022-08-03T06:57:24.841Z,25.76
2022-08-03T06:58:24.571Z,25.87
2022-08-03T07:00:10.306Z,25.95
2022-08-03T07:00:45.979Z,25.99
2022-08-03T07:01:24.807Z,26.07
2022-08-03T07:02:24.495Z,26.06
2022-08-03T07:03:25.214Z,26.12
2022-08-03T07:04:24.942Z,26.23
2022-08-03T07:05:24.689Z,26.23
2022-08-03T07:06:24.419Z,26.33
2022-08-03T07:07:24.671Z,26.39
2022-08-03T07:08:33.567Z,26.47
2022-08-03T07:09:25.654Z,26.51
2022-08-03T07:10:44.931Z,26.63
2022-08-03T07:11:24.626Z,26.70
2022-08-03T07:12:26.437Z,26.80
2022-08-03T07:13:26.727Z,26.94
2022-08-03T07:14:26.508Z,27.06
2022-08-03T07:15:53.778Z,27.13
2022-08-03T07:16:27.699Z,27.24
2022-08-03T07:17:26.560Z,27.36
2022-08-03T07:18:29.695Z,27.44
2022-08-03T07:19:26.623Z,27.55
2022-08-03T07:20:44.440Z,27.70
2022-08-03T07:21:26.657Z,27.78
2022-08-03T07:22:26.441Z,27.92
2022-08-03T07:23:25.509Z,28.04
2022-08-03T07:24:26.672Z,28.17
2022-08-03T07:25:26.414Z,28.27
2022-08-03T07:26:25.709Z,28.37
2022-08-03T07:27:26.558Z,28.40
2022-08-03T07:28:26.338Z,28.49
2022-08-03T07:29:26.632Z,28.56
2022-08-03T07:30:44.431Z,28.61
2022-08-03T07:31:25.322Z,28.66
2022-08-03T07:32:26.454Z,28.73
2022-08-03T07:33:26.267Z,28.76
2022-08-03T07:34:26.610Z,28.85
2022-08-03T07:35:26.407Z,28.96
2022-08-03T07:36:26.189Z,29.05
2022-08-03T07:37:25.321Z,28.96
2022-08-03T07:38:26.334Z,28.95
2022-08-03T07:39:26.121Z,28.93
2022-08-03T07:40:46.311Z,28.95
2022-08-03T07:41:26.217Z,28.90
2022-08-03T07:42:26.504Z,28.89
2022-08-03T07:43:25.336Z,28.89
2022-08-03T07:44:24.837Z,28.96
2022-08-03T07:45:25.526Z,29.09
2022-08-03T07:46:26.833Z,29.24
2022-08-03T07:47:26.087Z,29.34
2022-08-03T07:48:26.445Z,29.51
2022-08-03T07:49:26.275Z,29.57
2022-08-03T07:50:44.056Z,29.68
2022-08-03T07:51:26.235Z,29.70
2022-08-03T07:52:28.313Z,29.80
2022-08-03T07:53:26.357Z,30.00
2022-08-03T07:54:25.150Z,30.17
2022-08-03T07:55:24.670Z,30.32
2022-08-03T07:56:26.278Z,30.45
2022-08-03T07:57:26.075Z,30.45
2022-08-03T07:58:26.351Z,30.39
2022-08-03T07:59:25.221Z,30.43
2022-08-03T08:00:44.031Z,30.53
2022-08-03T08:01:26.289Z,30.55
2022-08-03T08:02:26.015Z,30.69
2022-08-03T08:03:26.304Z,30.79
2022-08-03T08:04:26.132Z,30.84
2022-08-03T08:05:24.911Z,30.86
2022-08-03T08:06:26.223Z,30.92
2022-08-03T08:07:25.975Z,31.02
2022-08-03T08:08:26.257Z,31.14
2022-08-03T08:09:24.782Z,31.28
2022-08-03T08:10:57.904Z,31.50
2022-08-03T08:11:27.144Z,31.51
2022-08-03T08:12:26.008Z,31.54
2022-08-03T08:13:25.798Z,31.53
2022-08-03T08:14:26.123Z,31.54
2022-08-03T08:15:25.460Z,31.43
2022-08-03T08:16:24.846Z,31.32
2022-08-03T08:17:26.091Z,31.26
2022-08-03T08:18:25.898Z,31.16
2022-08-03T08:19:25.685Z,31.07
2022-08-03T08:20:44.007Z,31.06
2022-08-03T08:21:24.714Z,30.95
2022-08-03T08:22:30.570Z,30.94
2022-08-03T08:23:42.307Z,31.07
2022-08-03T08:24:25.820Z,31.16
2022-08-03T08:25:25.939Z,31.41
2022-08-03T08:26:25.714Z,31.69
2022-08-03T08:27:25.062Z,31.84
2022-08-03T08:28:30.220Z,31.99
2022-08-03T08:29:26.672Z,32.00
2022-08-03T08:30:43.983Z,32.18
2022-08-03T08:31:25.675Z,32.32
2022-08-03T08:32:25.000Z,32.67
2022-08-03T08:33:29.994Z,33.01
2022-08-03T08:34:25.704Z,33.34
2022-08-03T08:35:24.707Z,33.68
2022-08-03T08:36:25.813Z,33.82
2022-08-03T08:37:25.605Z,34.12
2022-08-03T08:38:25.878Z,34.31
2022-08-03T08:39:25.716Z,34.50
2022-08-03T08:40:44.018Z,34.58
2022-08-03T08:41:25.719Z,34.72
2022-08-03T08:42:26.072Z,34.82
2022-08-03T08:43:25.927Z,34.94
2022-08-03T08:44:25.685Z,35.16
2022-08-03T08:45:25.472Z,35.38
2022-08-03T08:46:24.810Z,35.66
2022-08-03T08:47:26.091Z,35.97
2022-08-03T08:48:24.984Z,36.19
2022-08-03T08:49:24.554Z,36.41
2022-08-03T08:50:43.590Z,36.46
2022-08-03T08:51:24.858Z,36.57
2022-08-03T08:52:31.842Z,36.93
2022-08-03T08:53:27.657Z,37.00
2022-08-03T08:54:25.697Z,37.34
2022-08-03T08:55:25.529Z,37.34
2022-08-03T08:56:25.301Z,37.36
2022-08-03T08:57:41.835Z,37.31
2022-08-03T08:58:26.441Z,37.29
2022-08-03T08:59:25.728Z,37.31
2022-08-03T09:00:43.589Z,36.98
2022-08-03T09:01:25.285Z,37.05
2022-08-03T09:02:25.082Z,37.25
2022-08-03T09:03:30.146Z,37.51
2022-08-03T09:04:26.284Z,37.69
2022-08-03T09:05:41.570Z,37.86
2022-08-03T09:06:26.376Z,38.00
2022-08-03T09:07:25.698Z,38.13
2022-08-03T09:08:24.498Z,38.19
2022-08-03T09:10:04.799Z,38.19
2022-08-03T09:10:44.583Z,38.47
2022-08-03T09:11:51.772Z,38.44
2022-08-03T09:12:42.715Z,38.60
2022-08-03T09:13:25.422Z,38.59
2022-08-03T09:14:35.305Z,38.42
2022-08-03T09:15:25.263Z,38.63
2022-08-03T09:16:25.314Z,38.76
2022-08-03T09:17:25.625Z,38.78
2022-08-03T09:18:25.437Z,38.72
2022-08-03T09:19:24.881Z,39.07
2022-08-03T09:20:43.153Z,39.23
2022-08-03T09:21:33.922Z,39.17
2022-08-03T09:22:26.139Z,38.99
2022-08-03T09:23:51.733Z,39.18
2022-08-03T09:24:40.588Z,39.55
2022-08-03T09:25:26.029Z,39.57
2022-08-03T09:26:25.308Z,39.60
2022-08-03T09:27:26.170Z,39.82
2022-08-03T09:28:57.962Z,39.91
2022-08-03T09:29:26.244Z,40.00
2022-08-03T09:30:42.598Z,40.45
2022-08-03T09:31:25.304Z,40.57
2022-08-03T09:32:24.563Z,40.51
2022-08-03T09:33:25.398Z,40.39
2022-08-03T09:34:26.168Z,40.46
2022-08-03T09:35:33.102Z,40.60
2022-08-03T09:36:24.895Z,40.34
2022-08-03T09:38:11.133Z,40.34
2022-08-03T09:38:25.433Z,40.20
2022-08-03T09:39:41.231Z,40.22
2022-08-03T09:40:44.016Z,40.55
2022-08-03T09:41:23.957Z,40.54
2022-08-03T09:42:24.283Z,40.45
2022-08-03T09:43:25.318Z,40.32
2022-08-03T09:44:26.203Z,40.57
2022-08-03T09:45:24.909Z,40.53
2022-08-03T09:46:25.163Z,40.67
2022-08-03T09:47:28.172Z,40.67
2022-08-03T09:48:24.305Z,40.60
2022-08-03T09:49:25.398Z,40.54
2022-08-03T09:50:42.901Z,40.64
2022-08-03T09:51:32.815Z,40.72
2022-08-03T09:52:38.614Z,40.73
2022-08-03T09:53:25.293Z,41.02
2022-08-03T09:54:25.050Z,41.18
2022-08-03T09:56:33.926Z,40.88
2022-08-03T09:56:36.318Z,40.87
2022-08-03T09:57:26.056Z,40.82
2022-08-03T09:58:24.826Z,40.99
2022-08-03T09:59:24.118Z,41.20
2022-08-03T10:00:42.969Z,41.26
2022-08-03T10:01:25.567Z,41.36
2022-08-03T10:02:24.886Z,41.33
2022-08-03T10:03:25.214Z,41.49
2022-08-03T10:04:23.955Z,41.54
2022-08-03T10:05:23.716Z,41.73
2022-08-03T10:06:26.488Z,41.82
2022-08-03T10:07:23.880Z,41.91
2022-08-03T10:08:24.654Z,41.78
2022-08-03T10:09:24.953Z,41.73
2022-08-03T10:10:42.751Z,41.45
2022-08-03T10:11:24.953Z,41.37
2022-08-03T10:12:23.720Z,41.54
2022-08-03T10:13:25.040Z,41.83
2022-08-03T10:14:24.808Z,42.11
2022-08-03T10:16:22.594Z,42.02
2022-08-03T10:16:25.951Z,42.23
2022-08-03T10:17:23.900Z,42.46
2022-08-03T10:18:24.676Z,42.71
2022-08-03T10:19:24.984Z,42.95
2022-08-03T10:20:42.834Z,43.00
2022-08-03T10:21:24.529Z,43.03
2022-08-03T10:22:22.992Z,43.00
2022-08-03T10:23:24.696Z,42.81
2022-08-03T10:24:24.454Z,42.86
2022-08-03T10:25:24.753Z,43.11
2022-08-03T10:26:25.543Z,43.25
2022-08-03T10:27:23.786Z,43.19
2022-08-03T10:28:24.127Z,43.19
2022-08-03T10:29:24.877Z,43.25
2022-08-03T10:30:42.701Z,43.28
2022-08-03T10:31:24.459Z,43.40
2022-08-03T10:32:23.748Z,43.31
2022-08-03T10:33:51.220Z,43.37
2022-08-03T10:34:24.811Z,42.92
2022-08-03T10:35:24.687Z,42.46
2022-08-03T10:36:24.387Z,42.43
2022-08-03T10:37:23.744Z,42.93
2022-08-03T10:38:24.559Z,43.23
2022-08-03T10:39:24.307Z,43.45
2022-08-03T10:40:52.548Z,43.75
2022-08-03T10:41:25.369Z,43.91
2022-08-03T10:42:24.656Z,43.95
2022-08-03T10:43:24.411Z,43.90
2022-08-03T10:44:24.731Z,43.83
2022-08-03T10:45:24.481Z,44.00
2022-08-03T10:46:23.770Z,44.18
2022-08-03T10:47:24.590Z,44.13
2022-08-03T10:48:24.351Z,44.06
2022-08-03T10:49:34.544Z,43.69
2022-08-03T10:50:43.436Z,43.86
2022-08-03T10:51:24.711Z,44.02
2022-08-03T10:52:32.807Z,44.40
2022-08-03T10:53:23.486Z,44.66
2022-08-03T10:54:24.165Z,44.71
2022-08-03T10:55:24.448Z,44.46
2022-08-03T10:56:41.518Z,44.47
2022-08-03T10:57:24.637Z,44.60
2022-08-03T10:58:30.678Z,44.88
2022-08-03T10:59:27.834Z,45.08
2022-08-03T11:00:42.470Z,45.20
2022-08-03T11:01:24.669Z,45.21
2022-08-03T11:02:25.445Z,45.32
2022-08-03T11:03:23.214Z,45.26
2022-08-03T11:04:24.475Z,45.00
2022-08-03T11:05:24.232Z,44.92
2022-08-03T11:06:24.555Z,45.13
2022-08-03T11:07:23.594Z,44.92
2022-08-03T11:08:22.956Z,44.83
2022-08-03T11:09:24.460Z,44.60
2022-08-03T11:10:42.293Z,44.53
2022-08-03T11:11:23.223Z,44.46
2022-08-03T11:12:29.878Z,44.41
2022-08-03T11:13:24.067Z,44.47
2022-08-03T11:14:23.341Z,44.25
2022-08-03T11:15:24.136Z,44.40
2022-08-03T11:16:24.431Z,44.62
2022-08-03T11:17:24.258Z,44.75
2022-08-03T11:18:25.390Z,44.71
2022-08-03T11:19:23.309Z,44.44
2022-08-03T11:20:42.127Z,43.56
2022-08-03T11:21:28.817Z,42.96
2022-08-03T11:22:25.157Z,42.21
2022-08-03T11:24:04.210Z,41.35
2022-08-03T11:24:25.344Z,40.61
2022-08-03T11:25:54.603Z,40.15
2022-08-03T11:26:24.369Z,39.45
2022-08-03T11:27:23.408Z,38.95
2022-08-03T11:28:23.929Z,38.53
2022-08-03T11:29:24.197Z,38.35
2022-08-03T11:30:42.019Z,38.47
2022-08-03T11:31:48.766Z,38.54
2022-08-03T11:32:23.101Z,38.44
2022-08-03T11:33:22.315Z,38.31
2022-08-03T11:34:22.070Z,38.03
2022-08-03T11:35:22.314Z,37.76
2022-08-03T11:36:31.967Z,37.57
2022-08-03T11:37:24.575Z,37.41
2022-08-03T11:38:22.054Z,37.32
2022-08-03T11:39:22.306Z,37.27
2022-08-03T11:40:42.081Z,37.17
2022-08-03T11:41:22.307Z,37.20
2022-08-03T11:42:22.057Z,37.10
2022-08-03T11:43:21.816Z,37.15
2022-08-03T11:44:22.049Z,37.02
2022-08-03T11:45:21.781Z,37.06
2022-08-03T11:46:28.213Z,36.98
2022-08-03T11:47:22.948Z,36.93
2022-08-03T11:48:22.017Z,36.85
2022-08-03T11:49:22.669Z,36.83
2022-08-03T11:50:42.038Z,36.93
2022-08-03T11:51:21.765Z,37.02
2022-08-03T11:52:26.724Z,37.06
2022-08-03T11:53:22.766Z,37.10
2022-08-03T11:54:21.996Z,37.10
2022-08-03T11:55:21.984Z,37.03
2022-08-03T11:56:21.974Z,36.93
2022-08-03T11:57:21.706Z,36.83
2022-08-03T11:59:02.705Z,36.73
2022-08-03T11:59:22.720Z,36.64
2022-08-03T12:00:41.918Z,36.31
2022-08-03T12:01:23.247Z,36.09
2022-08-03T12:02:21.911Z,35.89
2022-08-03T12:03:21.662Z,35.81
2022-08-03T12:04:21.954Z,35.74
2022-08-03T12:05:21.635Z,35.70
2022-08-03T12:06:21.890Z,35.52
2022-08-03T12:07:25.041Z,35.47
2022-08-03T12:08:22.114Z,35.43
2022-08-03T12:09:21.860Z,35.40
2022-08-03T12:10:41.618Z,35.43
2022-08-03T12:11:21.851Z,35.38
2022-08-03T12:12:21.601Z,35.33
2022-08-03T12:14:35.718Z,35.25
2022-08-03T12:14:50.423Z,35.23
2022-08-03T12:15:22.798Z,35.25
2022-08-03T12:16:21.534Z,35.28
2022-08-03T12:17:22.068Z,35.29
2022-08-03T12:18:21.538Z,35.29
2022-08-03T12:19:21.824Z,35.16
2022-08-03T12:20:41.583Z,35.11
2022-08-03T12:21:21.807Z,35.07
2022-08-03T12:22:21.537Z,34.92
2022-08-03T12:23:21.786Z,34.88
2022-08-03T12:24:21.547Z,34.85
2022-08-03T12:25:38.590Z,34.80
2022-08-03T12:26:22.528Z,34.80
2022-08-03T12:27:21.780Z,34.80
2022-08-03T12:28:36.433Z,34.75
2022-08-03T12:29:22.775Z,34.81
2022-08-03T12:30:41.556Z,34.82
2022-08-03T12:31:21.789Z,34.78
2022-08-03T12:32:21.518Z,34.73
2022-08-03T12:33:21.781Z,34.75
2022-08-03T12:34:21.523Z,34.69
2022-08-03T12:35:21.787Z,34.65
2022-08-03T12:36:21.522Z,34.52
2022-08-03T12:37:29.890Z,34.43
2022-08-03T12:38:22.527Z,34.37
2022-08-03T12:39:21.263Z,34.19
2022-08-03T12:40:41.555Z,34.00
2022-08-03T12:41:21.269Z,33.91
2022-08-03T12:42:21.524Z,33.84
2022-08-03T12:43:21.254Z,33.84
2022-08-03T12:44:21.492Z,33.91
2022-08-03T12:45:21.236Z,33.95
2022-08-03T12:46:21.493Z,33.94
2022-08-03T12:47:21.369Z,33.97
2022-08-03T12:48:21.492Z,33.97
2022-08-03T12:49:21.298Z,34.00
2022-08-03T12:50:41.503Z,34.12
2022-08-03T12:51:21.230Z,34.12
2022-08-03T12:52:21.464Z,34.06
2022-08-03T12:53:21.213Z,34.00